Time;durP1;ratioP1;P1;durP2;ratioP2;P2;SDS_P1;SDS_P2;PMS_P1;PMS_P2;Temp;Humidity;BMP_temperature;BMP_pressure;BME280_temperature;BME280_humidity;BME280_pressure;Samples;Min_cycle;Max_cycle;Signal;HPM_P1;HPM_P2
2024/01/23 00:01:33;;;;;;;23.98;2.95;;;6.80;99.90;;;;;;5060883;28;20494;-81
2024/01/23 00:04:00;;;;;;;26.33;3.65;;;6.80;99.90;;;;;;5056181;28;20051;-83
2024/01/23 00:06:27;;;;;;;27.15;3.90;;;6.80;99.90;;;;;;5079277;28;20043;-83
2024/01/23 00:08:53;;;;;;;16.33;2.80;;;6.80;99.90;;;;;;5077279;28;20036;-82
2024/01/23 00:11:20;;;;;;;27.23;2.72;;;6.80;99.90;;;;;;5072498;28;20039;-83
2024/01/23 00:13:46;;;;;;;20.92;2.95;;;6.80;99.90;;;;;;5083250;28;20032;-81
2024/01/23 00:16:12;;;;;;;17.17;2.00;;;6.80;99.90;;;;;;5081273;28;20035;-82
2024/01/23 00:18:38;;;;;;;23.85;2.60;;;6.80;99.90;;;;;;5068484;28;20106;-83
2024/01/23 00:21:05;;;;;;;15.50;2.03;;;6.80;99.90;;;;;;5065466;28;20028;-82
2024/01/23 00:23:31;;;;;;;22.50;3.08;;;6.80;99.90;;;;;;5080745;28;20513;-81
2024/01/23 00:25:58;;;;;;;21.85;2.83;;;6.80;99.90;;;;;;5082918;28;20036;-83
2024/01/23 00:28:24;;;;;;;30.52;2.60;;;6.80;99.90;;;;;;5079215;28;20289;-83
2024/01/23 00:30:50;;;;;;;16.80;2.85;;;6.80;99.90;;;;;;5080897;28;20039;-79
2024/01/23 00:33:16;;;;;;;26.15;3.55;;;6.70;99.90;;;;;;5070650;28;20036;-84
2024/01/23 00:35:43;;;;;;;28.13;3.55;;;6.70;99.90;;;;;;5073385;28;20028;-83
2024/01/23 00:38:09;;;;;;;24.67;3.85;;;6.70;99.90;;;;;;5067002;28;20385;-82
2024/01/23 00:40:35;;;;;;;23.23;2.85;;;6.70;99.90;;;;;;5047124;28;20492;-82
2024/01/23 00:43:02;;;;;;;20.63;3.10;;;6.70;99.90;;;;;;5066486;28;20033;-83
2024/01/23 00:45:28;;;;;;;28.25;3.45;;;6.70;99.90;;;;;;5066139;28;20045;-84
2024/01/23 00:47:55;;;;;;;24.45;3.67;;;6.70;99.90;;;;;;5051299;28;20028;-84
2024/01/23 00:50:21;;;;;;;19.83;2.33;;;6.70;99.90;;;;;;5065889;28;20039;-81
2024/01/23 00:52:48;;;;;;;21.10;2.35;;;6.60;99.90;;;;;;5064945;28;20601;-83
2024/01/23 00:55:15;;;;;;;17.88;2.53;;;6.60;99.90;;;;;;5049308;28;20035;-82
2024/01/23 00:57:41;;;;;;;22.17;2.42;;;6.70;99.90;;;;;;5067473;28;20033;-82
2024/01/23 01:00:09;;;;;;;27.50;2.90;;;6.70;99.90;;;;;;5067529;28;20028;-82
2024/01/23 01:02:36;;;;;;;20.55;2.70;;;6.70;99.90;;;;;;5066148;28;20050;-84
2024/01/23 01:05:02;;;;;;;22.70;4.30;;;6.70;99.90;;;;;;5065093;28;20037;-81
2024/01/23 01:07:29;;;;;;;13.88;2.20;;;6.60;99.90;;;;;;5066237;28;20041;-84
2024/01/23 01:09:55;;;;;;;20.52;3.30;;;6.60;99.90;;;;;;5030976;28;20475;-82
2024/01/23 01:12:21;;;;;;;26.85;3.55;;;6.60;99.90;;;;;;5067044;28;20487;-84
2024/01/23 01:14:48;;;;;;;24.83;3.17;;;6.60;99.90;;;;;;5065248;28;20059;-83
2024/01/23 01:17:14;;;;;;;23.27;2.90;;;6.60;99.90;;;;;;5068529;28;20446;-84
2024/01/23 01:19:40;;;;;;;30.48;2.95;;;6.70;99.90;;;;;;5108847;28;20467;-85
2024/01/23 01:22:07;;;;;;;23.83;3.38;;;6.70;99.90;;;;;;5072019;28;20036;-83
2024/01/23 01:24:33;;;;;;;29.92;3.80;;;6.70;99.90;;;;;;5050597;28;20040;-85
2024/01/23 01:26:59;;;;;;;29.77;4.72;;;6.70;99.90;;;;;;5052224;28;20380;-85
2024/01/23 01:29:26;;;;;;;22.95;2.90;;;6.80;99.90;;;;;;5065668;28;20049;-86
2024/01/23 01:31:52;;;;;;;22.00;3.83;;;6.80;99.90;;;;;;5103933;28;20574;-85
2024/01/23 01:34:19;;;;;;;22.30;3.63;;;6.70;99.90;;;;;;5068591;28;20047;-82
2024/01/23 01:36:45;;;;;;;27.17;3.45;;;6.70;99.90;;;;;;5054319;28;20037;-84
2024/01/23 01:39:13;;;;;;;24.27;3.53;;;6.70;99.90;;;;;;5051891;28;20036;-84
2024/01/23 01:41:39;;;;;;;18.58;3.08;;;6.60;99.90;;;;;;5068667;28;20507;-83
2024/01/23 01:44:05;;;;;;;26.85;3.47;;;6.60;99.90;;;;;;5068830;28;20533;-85
2024/01/23 01:46:32;;;;;;;22.33;3.47;;;6.50;99.90;;;;;;5074761;28;20039;-86
2024/01/23 01:48:58;;;;;;;23.35;3.08;;;6.50;99.90;;;;;;5068693;28;20467;-85
2024/01/23 01:51:28;;;;;;;13.43;2.30;;;6.40;99.90;;;;;;5067811;28;20029;-85
2024/01/23 01:53:56;;;;;;;25.15;3.55;;;6.40;99.90;;;;;;5071539;28;20036;-83
2024/01/23 01:56:23;;;;;;;31.30;4.85;;;6.30;99.90;;;;;;5070924;28;20039;-82
2024/01/23 01:58:51;;;;;;;23.27;2.38;;;6.30;99.90;;;;;;5032529;28;20043;-85
2024/01/23 02:01:17;;;;;;;24.95;2.88;;;6.20;99.90;;;;;;5053754;28;20032;-84
2024/01/23 02:03:44;;;;;;;15.80;2.17;;;6.20;99.90;;;;;;5068223;28;20378;-85
2024/01/23 02:06:11;;;;;;;21.00;2.20;;;6.20;99.90;;;;;;5072000;28;20563;-85
2024/01/23 02:08:37;;;;;;;27.70;3.17;;;6.10;99.90;;;;;;5050664;28;20045;-85
2024/01/23 02:11:04;;;;;;;17.40;3.08;;;6.10;99.90;;;;;;5070544;28;20467;-85
2024/01/23 02:13:31;;;;;;;26.77;2.90;;;6.00;99.90;;;;;;5050010;28;20040;-86
2024/01/23 02:15:57;;;;;;;22.27;2.92;;;6.00;99.90;;;;;;5052327;28;20036;-85
2024/01/23 02:18:24;;;;;;;23.95;3.22;;;6.00;99.90;;;;;;5051506;28;20055;-84
2024/01/23 02:20:50;;;;;;;17.65;2.22;;;6.00;99.90;;;;;;5053620;28;20447;-87
2024/01/23 02:23:17;;;;;;;21.75;2.70;;;5.90;99.90;;;;;;5068303;28;20052;-85
2024/01/23 02:25:44;;;;;;;20.38;2.83;;;5.90;99.90;;;;;;5074025;28;20032;-84
2024/01/23 02:28:11;;;;;;;15.43;2.40;;;5.90;99.90;;;;;;5053584;28;20475;-84
2024/01/23 02:30:37;;;;;;;17.77;2.38;;;5.80;99.90;;;;;;5069090;28;20048;-87
2024/01/23 02:33:05;;;;;;;25.08;3.17;;;5.80;99.90;;;;;;5052551;28;20473;-87
2024/01/23 02:35:32;;;;;;;14.85;2.60;;;5.80;99.90;;;;;;5050580;28;20032;-86
2024/01/23 02:37:58;;;;;;;30.33;3.20;;;5.70;99.90;;;;;;5070464;28;20070;-87
2024/01/23 02:40:25;;;;;;;20.83;3.65;;;5.70;99.90;;;;;;5071540;28;20103;-85
2024/01/23 02:42:51;;;;;;;20.70;2.90;;;5.70;99.90;;;;;;5050895;28;20428;-84
2024/01/23 02:45:18;;;;;;;18.30;1.98;;;5.70;99.90;;;;;;5050104;28;20044;-82
2024/01/23 02:47:44;;;;;;;22.42;2.50;;;5.60;99.90;;;;;;5105113;27;20040;-83
2024/01/23 02:50:11;;;;;;;23.02;2.42;;;5.60;99.90;;;;;;5067390;28;20041;-85
2024/01/23 02:52:37;;;;;;;26.95;2.85;;;5.60;99.90;;;;;;5067385;28;20040;-83
2024/01/23 02:55:04;;;;;;;25.77;3.63;;;5.60;99.90;;;;;;5050842;28;20032;-85
2024/01/23 02:57:30;;;;;;;21.50;3.10;;;5.60;99.90;;;;;;5070122;28;20045;-86
2024/01/23 02:59:57;;;;;;;20.73;3.20;;;5.60;99.90;;;;;;5107935;27;20514;-85
2024/01/23 03:02:23;;;;;;;24.05;2.67;;;5.70;99.90;;;;;;5070059;28;20036;-85
2024/01/23 03:04:50;;;;;;;27.38;3.85;;;5.70;99.90;;;;;;5068849;28;20024;-84
2024/01/23 03:07:18;;;;;;;31.25;4.20;;;5.80;99.90;;;;;;5071489;28;20032;-86
2024/01/23 03:09:44;;;;;;;28.02;3.28;;;5.80;99.90;;;;;;5067122;28;20037;-83
2024/01/23 03:12:15;;;;;;;24.52;3.65;;;5.90;99.90;;;;;;5053809;28;20471;-86
2024/01/23 03:14:46;;;;;;;25.00;3.47;;;6.00;99.90;;;;;;5067994;28;20029;-86
2024/01/23 03:17:13;;;;;;;21.58;2.75;;;6.00;99.90;;;;;;5070054;28;20032;-82
2024/01/23 03:19:40;;;;;;;21.85;3.35;;;6.00;99.90;;;;;;5074711;28;20403;-82
2024/01/23 03:22:08;;;;;;;22.83;3.58;;;6.00;99.90;;;;;;5055884;28;20038;-85
2024/01/23 03:24:40;;;;;;;21.25;3.38;;;6.00;99.90;;;;;;5107530;27;20463;-85
2024/01/23 03:27:06;;;;;;;30.42;4.18;;;6.00;99.90;;;;;;5069913;28;20029;-87
2024/01/23 03:29:41;;;;;;;19.75;3.22;;;6.10;99.90;;;;;;5084145;28;20513;-86
2024/01/23 03:32:09;;;;;;;29.48;3.47;;;6.10;99.90;;;;;;5088421;28;20051;-86
2024/01/23 03:34:37;;;;;;;29.45;2.92;;;6.10;99.90;;;;;;5068623;28;20040;-87
2024/01/23 03:37:04;;;;;;;21.35;4.07;;;6.10;99.90;;;;;;5068989;28;20365;-87
2024/01/23 03:39:30;;;;;;;22.33;2.65;;;6.00;99.90;;;;;;5036022;28;20037;-85
2024/01/23 03:41:56;;;;;;;28.15;3.85;;;5.90;99.90;;;;;;5066667;28;20032;-86
2024/01/23 03:44:27;;;;;;;21.85;2.40;;;5.90;99.90;;;;;;5052296;28;20036;-86
2024/01/23 03:46:54;;;;;;;21.13;3.03;;;5.80;99.90;;;;;;5085484;28;20044;-86
2024/01/23 03:49:22;;;;;;;23.33;3.90;;;5.80;99.90;;;;;;5069326;28;20040;-83
2024/01/23 03:51:49;;;;;;;25.77;3.25;;;5.80;99.90;;;;;;5047538;28;20051;-85
2024/01/23 03:54:16;;;;;;;21.73;3.15;;;5.80;99.90;;;;;;5066578;28;20040;-83
2024/01/23 03:56:42;;;;;;;22.67;3.20;;;5.80;99.90;;;;;;5084197;28;20049;-86
2024/01/23 03:59:09;;;;;;;19.58;3.28;;;5.80;99.90;;;;;;5071787;28;20036;-85
2024/01/23 04:01:36;;;;;;;25.38;3.08;;;5.80;99.90;;;;;;5050912;28;20044;-87
2024/01/23 04:04:02;;;;;;;19.25;2.60;;;5.80;99.90;;;;;;5070380;28;20036;-85
2024/01/23 04:06:28;;;;;;;24.58;3.03;;;5.80;99.90;;;;;;5066863;28;20047;-86
2024/01/23 04:08:55;;;;;;;31.92;4.45;;;5.90;99.90;;;;;;5068429;28;20040;-86
2024/01/23 04:11:22;;;;;;;26.38;3.80;;;5.90;99.90;;;;;;5034174;28;20406;-84
2024/01/23 04:13:48;;;;;;;27.20;4.22;;;6.00;99.90;;;;;;5067503;28;20048;-84
2024/01/23 04:16:14;;;;;;;22.90;2.13;;;6.00;99.90;;;;;;5102112;27;20045;-86
2024/01/23 04:18:41;;;;;;;23.92;2.72;;;6.10;99.90;;;;;;5049080;28;20047;-87
2024/01/23 04:21:07;;;;;;;32.15;4.20;;;6.10;99.90;;;;;;5081791;28;20033;-85
2024/01/23 04:23:33;;;;;;;21.08;2.88;;;6.10;99.90;;;;;;5050281;28;20036;-87
2024/01/23 04:26:00;;;;;;;18.45;3.03;;;6.10;99.90;;;;;;5102702;27;20059;-86
2024/01/23 04:28:26;;;;;;;35.58;4.50;;;6.10;99.90;;;;;;5066298;28;20036;-87
2024/01/23 04:30:53;;;;;;;25.35;2.83;;;6.10;99.90;;;;;;5034922;28;20050;-84
2024/01/23 04:33:19;;;;;;;29.10;3.33;;;6.10;99.90;;;;;;5083725;28;20051;-85
2024/01/23 04:35:46;;;;;;;18.08;2.20;;;6.10;99.90;;;;;;5049807;28;20033;-88
2024/01/23 04:38:13;;;;;;;22.75;2.60;;;6.10;99.90;;;;;;5088533;27;20040;-85
2024/01/23 04:40:39;;;;;;;21.20;3.28;;;6.10;99.90;;;;;;5066859;28;20041;-86
2024/01/23 04:43:05;;;;;;;26.80;3.17;;;6.10;99.90;;;;;;5069775;28;20035;-87
2024/01/23 04:45:32;;;;;;;25.38;3.20;;;6.10;99.90;;;;;;5089252;28;20047;-86
2024/01/23 04:47:58;;;;;;;30.58;3.63;;;6.20;99.90;;;;;;5050924;28;20728;-83
2024/01/23 04:50:24;;;;;;;26.77;4.18;;;6.20;99.90;;;;;;5066602;28;20037;-86
2024/01/23 04:52:56;;;;;;;21.42;2.72;;;6.20;99.90;;;;;;5068784;28;20024;-85
2024/01/23 04:55:23;;;;;;;25.20;4.78;;;6.20;99.90;;;;;;5066158;28;20411;-86
2024/01/23 04:57:49;;;;;;;20.40;3.67;;;6.20;99.90;;;;;;5064672;28;20039;-81
2024/01/23 05:00:17;;;;;;;32.35;3.92;;;6.20;99.90;;;;;;5066514;28;20039;-87
2024/01/23 05:02:44;;;;;;;18.10;2.20;;;6.20;99.90;;;;;;5064699;28;20040;-88
2024/01/23 05:05:10;;;;;;;15.75;2.63;;;6.30;99.90;;;;;;5055976;28;20029;-85
2024/01/23 05:07:36;;;;;;;18.15;2.20;;;6.20;99.90;;;;;;5066409;28;20135;-85
2024/01/23 05:10:04;;;;;;;15.63;2.08;;;6.20;99.90;;;;;;5067613;28;20028;-86
2024/01/23 05:12:30;;;;;;;20.90;2.45;;;6.20;99.90;;;;;;5069434;28;20041;-86
2024/01/23 05:14:57;;;;;;;17.92;2.78;;;6.20;99.90;;;;;;5071467;28;20039;-87
2024/01/23 05:17:23;;;;;;;20.38;2.95;;;6.20;99.90;;;;;;5105475;28;20037;-83
2024/01/23 05:19:49;;;;;;;21.63;3.22;;;6.20;99.90;;;;;;5049484;28;20036;-85
2024/01/23 05:22:16;;;;;;;19.10;3.28;;;6.20;99.90;;;;;;5071487;28;20035;-87
2024/01/23 05:24:42;;;;;;;21.98;3.15;;;6.20;99.90;;;;;;5071237;28;20685;-86
2024/01/23 05:27:09;;;;;;;23.50;2.90;;;6.20;99.90;;;;;;5033769;28;20032;-88
2024/01/23 05:29:35;;;;;;;24.90;3.05;;;6.20;99.90;;;;;;5065973;28;20040;-84
2024/01/23 05:32:01;;;;;;;22.15;2.60;;;6.20;99.90;;;;;;5067521;28;20032;-85
2024/01/23 05:34:28;;;;;;;18.98;2.78;;;6.20;99.90;;;;;;5086562;28;20499;-86
2024/01/23 05:36:54;;;;;;;25.30;2.88;;;6.20;99.90;;;;;;5066861;28;20036;-84
2024/01/23 05:39:20;;;;;;;23.58;3.70;;;6.20;99.90;;;;;;5049664;28;20033;-85
2024/01/23 05:41:47;;;;;;;21.77;3.17;;;6.20;99.90;;;;;;5048114;28;20052;-86
2024/01/23 05:44:13;;;;;;;23.33;3.13;;;6.20;99.90;;;;;;5065664;28;20051;-86
2024/01/23 05:46:39;;;;;;;22.63;3.10;;;6.20;99.90;;;;;;5066760;28;20076;-82
2024/01/23 05:49:05;;;;;;;18.80;2.63;;;6.20;99.90;;;;;;5065696;28;20047;-86
2024/01/23 05:51:32;;;;;;;20.35;2.53;;;6.20;99.90;;;;;;5067924;28;20040;-84
2024/01/23 05:53:59;;;;;;;20.85;2.35;;;6.20;99.90;;;;;;5048360;28;20042;-86
2024/01/23 05:56:25;;;;;;;19.27;2.83;;;6.20;99.90;;;;;;5066482;28;20346;-87
2024/01/23 05:58:51;;;;;;;16.83;2.40;;;6.20;99.90;;;;;;5067389;28;20429;-83
2024/01/23 06:01:18;;;;;;;21.10;3.50;;;6.20;99.90;;;;;;5054071;28;20629;-83
2024/01/23 06:03:44;;;;;;;26.05;4.05;;;6.20;99.90;;;;;;5049911;28;20033;-86
2024/01/23 06:06:10;;;;;;;17.10;2.47;;;6.20;99.90;;;;;;5066577;28;20411;-84
2024/01/23 06:08:37;;;;;;;16.60;2.42;;;6.20;99.90;;;;;;5064060;28;20041;-83
2024/01/23 06:11:03;;;;;;;19.08;2.63;;;6.20;99.90;;;;;;5067003;28;20393;-83
2024/01/23 06:13:29;;;;;;;21.30;4.13;;;6.10;99.90;;;;;;5046449;28;20044;-86
2024/01/23 06:15:56;;;;;;;23.77;3.60;;;6.10;99.90;;;;;;5048279;28;20529;-84
2024/01/23 06:18:22;;;;;;;17.23;2.78;;;6.00;99.90;;;;;;5082834;28;20036;-86
2024/01/23 06:20:48;;;;;;;24.15;3.22;;;6.00;99.90;;;;;;5068684;28;20039;-85
2024/01/23 06:23:15;;;;;;;18.83;2.80;;;5.90;99.90;;;;;;5070755;28;20043;-85
2024/01/23 06:25:41;;;;;;;19.33;2.67;;;5.90;99.90;;;;;;5068189;28;20028;-84
2024/01/23 06:28:08;;;;;;;13.45;2.42;;;5.80;99.90;;;;;;5070885;28;20395;-85
2024/01/23 06:30:34;;;;;;;12.93;1.80;;;5.70;99.90;;;;;;5068787;28;20037;-83
2024/01/23 06:33:01;;;;;;;15.13;1.77;;;5.60;99.90;;;;;;5068342;28;20024;-83
2024/01/23 06:35:27;;;;;;;16.50;3.17;;;5.50;99.90;;;;;;5067517;28;20029;-84
2024/01/23 06:37:53;;;;;;;21.60;2.15;;;5.40;99.90;;;;;;5069458;28;20475;-80
2024/01/23 06:40:20;;;;;;;24.77;2.97;;;5.40;99.90;;;;;;5032580;28;20063;-83
2024/01/23 06:42:46;;;;;;;11.63;2.17;;;5.30;99.90;;;;;;5065829;28;20033;-80
2024/01/23 06:45:14;;;;;;;14.15;1.92;;;5.20;99.90;;;;;;5032581;28;20040;-86
2024/01/23 06:47:41;;;;;;;18.83;2.97;;;5.20;99.90;;;;;;5060982;28;20047;-83
2024/01/23 06:50:08;;;;;;;16.20;2.45;;;5.10;99.90;;;;;;5070627;28;20494;-85
2024/01/23 06:52:34;;;;;;;12.27;1.92;;;5.00;99.90;;;;;;5049558;28;20039;-84
2024/01/23 06:55:01;;;;;;;20.45;1.67;;;5.00;99.90;;;;;;5066734;28;20349;-84
2024/01/23 06:57:27;;;;;;;15.40;1.75;;;4.90;99.90;;;;;;5066138;28;20272;-85
2024/01/23 06:59:53;;;;;;;16.73;2.20;;;4.90;99.90;;;;;;5067007;28;20025;-85
2024/01/23 07:02:20;;;;;;;17.45;2.30;;;4.80;99.90;;;;;;5050271;28;20402;-85
2024/01/23 07:04:46;;;;;;;19.67;2.55;;;4.80;99.90;;;;;;5067227;28;20403;-83
2024/01/23 07:07:12;;;;;;;22.75;2.47;;;4.70;99.90;;;;;;5071651;28;20036;-85
2024/01/23 07:09:39;;;;;;;18.50;3.03;;;4.70;99.90;;;;;;5069352;28;20427;-82
2024/01/23 07:12:06;;;;;;;12.75;1.50;;;4.70;99.90;;;;;;5088994;28;20055;-82
2024/01/23 07:14:32;;;;;;;21.23;2.80;;;4.70;99.90;;;;;;5050271;28;20032;-84
2024/01/23 07:16:58;;;;;;;19.67;2.75;;;4.60;99.90;;;;;;5051480;28;20039;-83
2024/01/23 07:19:24;;;;;;;17.00;2.28;;;4.60;99.90;;;;;;5048931;28;20036;-85
2024/01/23 07:21:51;;;;;;;17.33;2.40;;;4.50;99.90;;;;;;5049872;28;20036;-86
2024/01/23 07:24:17;;;;;;;18.95;3.08;;;4.50;99.90;;;;;;5067095;28;20388;-84
2024/01/23 07:26:44;;;;;;;15.88;2.38;;;4.50;99.90;;;;;;5049220;28;20040;-85
2024/01/23 07:29:11;;;;;;;20.23;2.35;;;4.50;99.90;;;;;;5067289;28;20040;-85
2024/01/23 07:31:39;;;;;;;30.50;3.33;;;4.40;99.90;;;;;;5049167;28;20499;-85
2024/01/23 07:34:05;;;;;;;23.58;2.92;;;4.40;99.90;;;;;;5034939;28;20029;-84
2024/01/23 07:36:32;;;;;;;19.08;2.90;;;4.40;99.90;;;;;;5065544;28;20040;-86
2024/01/23 07:38:58;;;;;;;23.60;2.75;;;4.40;99.90;;;;;;5048633;28;20521;-84
2024/01/23 07:41:24;;;;;;;17.40;2.47;;;4.40;99.90;;;;;;5048411;28;20045;-83
2024/01/23 07:43:51;;;;;;;20.75;2.17;;;4.30;99.90;;;;;;5046918;28;20504;-89
2024/01/23 07:46:17;;;;;;;22.08;3.20;;;4.30;99.90;;;;;;5067436;28;20040;-84
2024/01/23 07:48:44;;;;;;;18.70;2.40;;;4.30;99.90;;;;;;5080479;28;20028;-84
2024/01/23 07:51:10;;;;;;;16.00;1.98;;;4.30;99.90;;;;;;5100687;27;20037;-85
2024/01/23 07:53:36;;;;;;;18.58;3.03;;;4.30;99.90;;;;;;5084380;28;20043;-84
2024/01/23 07:56:03;;;;;;;18.23;2.90;;;4.30;99.90;;;;;;5065071;28;20328;-85
2024/01/23 07:58:29;;;;;;;16.98;3.60;;;4.30;99.90;;;;;;5064736;28;20451;-82
2024/01/23 08:00:56;;;;;;;16.42;2.50;;;4.30;99.90;;;;;;5049438;28;20028;-86
2024/01/23 08:03:22;;;;;;;21.00;2.47;;;4.30;99.90;;;;;;5068116;28;20384;-85
2024/01/23 08:05:48;;;;;;;27.83;4.32;;;4.30;99.90;;;;;;5050048;28;20033;-85
2024/01/23 08:08:16;;;;;;;27.27;3.88;;;4.30;99.90;;;;;;5048017;28;20037;-84
2024/01/23 08:10:42;;;;;;;16.73;3.65;;;4.40;99.90;;;;;;5066476;28;20382;-85
2024/01/23 08:13:09;;;;;;;22.77;3.10;;;4.40;99.90;;;;;;5066934;28;20032;-85
2024/01/23 08:15:35;;;;;;;21.05;3.60;;;4.40;99.90;;;;;;5066838;28;20036;-87
2024/01/23 08:18:06;;;;;;;20.33;3.60;;;4.40;99.90;;;;;;5065434;28;20294;-85
2024/01/23 08:20:32;;;;;;;21.73;2.90;;;4.50;99.90;;;;;;5082152;28;20040;-83
2024/01/23 08:22:58;;;;;;;26.05;3.00;;;4.50;99.90;;;;;;5106283;27;20055;-81
2024/01/23 08:25:25;;;;;;;31.33;4.10;;;4.50;99.90;;;;;;5085932;28;20479;-81
2024/01/23 08:27:51;;;;;;;22.90;3.55;;;4.50;99.90;;;;;;5049108;28;20017;-84
2024/01/23 08:30:18;;;;;;;18.58;2.58;;;4.60;99.90;;;;;;5082307;28;20036;-82
2024/01/23 08:32:44;;;;;;;21.75;1.75;;;4.60;99.90;;;;;;5065764;28;20493;-81
2024/01/23 08:35:11;;;;;;;22.10;4.43;;;4.70;99.90;;;;;;5049319;28;20039;-85
2024/01/23 08:37:37;;;;;;;32.13;5.13;;;4.70;99.90;;;;;;5067136;28;20050;-81
2024/01/23 08:40:06;;;;;;;17.98;4.93;;;4.70;99.90;;;;;;5068090;28;20506;-83
2024/01/23 08:42:32;;;;;;;24.02;3.72;;;4.80;99.90;;;;;;5065045;28;20501;-84
2024/01/23 08:44:58;;;;;;;17.65;3.22;;;4.80;99.90;;;;;;5051367;28;20040;-83
2024/01/23 08:47:25;;;;;;;19.60;3.47;;;4.90;99.90;;;;;;5067044;28;20024;-85
2024/01/23 08:49:51;;;;;;;19.50;3.08;;;4.90;99.90;;;;;;5084495;28;20056;-82
2024/01/23 08:52:18;;;;;;;25.60;3.88;;;5.00;99.90;;;;;;5051182;28;20048;-83
2024/01/23 08:54:44;;;;;;;18.25;2.75;;;5.10;99.90;;;;;;5064754;28;20035;-82
2024/01/23 08:57:10;;;;;;;24.40;3.90;;;5.10;99.90;;;;;;5051631;28;20408;-85
2024/01/23 08:59:38;;;;;;;25.67;3.42;;;5.10;99.90;;;;;;5049386;28;20041;-83
2024/01/23 09:02:04;;;;;;;24.23;3.42;;;5.10;99.90;;;;;;5063065;28;20052;-83
2024/01/23 09:04:30;;;;;;;23.13;4.00;;;5.10;99.90;;;;;;5053231;28;20037;-85
2024/01/23 09:06:57;;;;;;;18.77;3.50;;;5.10;99.90;;;;;;5072448;28;20026;-80
2024/01/23 09:09:23;;;;;;;34.50;4.07;;;5.20;99.90;;;;;;5050113;28;20036;-84
2024/01/23 09:11:50;;;;;;;23.92;3.20;;;5.20;99.90;;;;;;5033021;28;20049;-84
2024/01/23 09:14:16;;;;;;;31.40;3.97;;;5.30;99.90;;;;;;5089180;28;20035;-83
2024/01/23 09:16:42;;;;;;;28.42;3.90;;;5.40;99.90;;;;;;5048997;28;20033;-82
2024/01/23 09:19:09;;;;;;;29.10;3.85;;;5.40;99.90;;;;;;5065348;28;20028;-81
2024/01/23 09:21:35;;;;;;;30.70;4.32;;;5.50;99.90;;;;;;5066138;28;20040;-84
2024/01/23 09:24:02;;;;;;;29.85;3.88;;;5.50;99.90;;;;;;5066084;28;20028;-85
2024/01/23 09:26:28;;;;;;;23.42;4.07;;;5.60;99.90;;;;;;5065066;28;20376;-83
2024/01/23 09:28:54;;;;;;;28.08;5.15;;;5.70;99.90;;;;;;5084880;28;20494;-83
2024/01/23 09:31:22;;;;;;;30.40;4.95;;;5.70;99.90;;;;;;5032736;28;20033;-83
2024/01/23 09:33:49;;;;;;;25.23;3.63;;;5.80;99.90;;;;;;5066146;28;20033;-83
2024/01/23 09:36:15;;;;;;;23.25;4.60;;;5.80;99.90;;;;;;5049725;28;20383;-84
2024/01/23 09:38:41;;;;;;;32.00;5.40;;;5.80;99.90;;;;;;5053255;28;20032;-82
2024/01/23 09:41:12;;;;;;;28.33;4.40;;;5.90;99.90;;;;;;5049269;28;20626;-82
2024/01/23 09:43:46;;;;;;;24.67;3.90;;;5.90;99.90;;;;;;5065452;28;20060;-82
2024/01/23 09:46:13;;;;;;;21.63;4.10;;;6.00;99.90;;;;;;5064433;28;20040;-82
2024/01/23 09:48:40;;;;;;;20.92;4.15;;;6.10;99.90;;;;;;5051626;28;20048;-82
2024/01/23 09:51:14;;;;;;;31.58;4.18;;;6.10;99.90;;;;;;5102740;28;20021;-84
2024/01/23 09:53:44;;;;;;;30.83;4.43;;;6.20;99.90;;;;;;5064718;28;20028;-84
2024/01/23 09:56:11;;;;;;;34.63;5.65;;;6.30;99.90;;;;;;5072595;28;20525;-82
2024/01/23 09:58:38;;;;;;;28.52;4.35;;;6.30;99.90;;;;;;5051474;28;20032;-85
2024/01/23 10:01:05;;;;;;;26.58;3.72;;;6.40;99.90;;;;;;5089325;28;20039;-84
2024/01/23 10:03:35;;;;;;;24.67;3.55;;;6.50;99.90;;;;;;5068663;28;20028;-84
2024/01/23 10:06:04;;;;;;;35.03;5.07;;;6.60;99.90;;;;;;5055322;28;20024;-85
2024/01/23 10:08:30;;;;;;;31.15;4.63;;;6.80;99.90;;;;;;5055151;28;20059;-81
2024/01/23 10:11:01;;;;;;;19.73;2.85;;;6.90;99.90;;;;;;5053688;28;20378;-83
2024/01/23 10:13:28;;;;;;;23.33;3.58;;;7.10;99.90;;;;;;5065981;28;20055;-85
2024/01/23 10:15:55;;;;;;;26.67;5.00;;;7.40;99.90;;;;;;5055368;28;20039;-81
2024/01/23 10:18:22;;;;;;;20.98;3.35;;;7.70;99.90;;;;;;5052204;28;20039;-82
2024/01/23 10:20:48;;;;;;;24.17;4.47;;;7.90;99.90;;;;;;5051307;28;20029;-83
2024/01/23 10:23:16;;;;;;;23.27;4.72;;;8.00;99.90;;;;;;5068234;28;20091;-84
2024/01/23 10:25:43;;;;;;;26.75;4.70;;;8.20;99.90;;;;;;5070513;28;20044;-84
2024/01/23 10:28:10;;;;;;;23.48;4.15;;;8.40;99.90;;;;;;5071101;28;20051;-85
2024/01/23 10:30:39;;;;;;;18.92;3.72;;;8.50;99.90;;;;;;5087250;28;20043;-84
2024/01/23 10:33:06;;;;;;;23.73;4.75;;;8.70;99.90;;;;;;5064439;28;20387;-83
2024/01/23 10:35:33;;;;;;;20.48;3.47;;;9.00;99.90;;;;;;5052617;28;20033;-86
2024/01/23 10:38:02;;;;;;;26.08;4.78;;;9.20;99.90;;;;;;5069595;28;20684;-79
2024/01/23 10:40:32;;;;;;;23.45;3.65;;;9.30;99.90;;;;;;5049322;28;20044;-83
2024/01/23 10:42:59;;;;;;;20.75;3.47;;;9.50;99.90;;;;;;5052336;28;20036;-79
2024/01/23 10:45:26;;;;;;;18.27;4.05;;;9.70;99.90;;;;;;5065257;28;20114;-85
2024/01/23 10:47:53;;;;;;;30.08;4.63;;;9.80;99.90;;;;;;5067732;28;20060;-84
2024/01/23 10:50:20;;;;;;;23.23;3.65;;;9.90;99.90;;;;;;5067863;28;20040;-81
2024/01/23 10:52:48;;;;;;;19.85;3.58;;;9.90;99.90;;;;;;5067201;28;20376;-82
2024/01/23 10:55:19;;;;;;;20.27;4.38;;;9.70;99.90;;;;;;5069600;28;20028;-84
2024/01/23 10:57:47;;;;;;;19.88;3.95;;;9.50;99.90;;;;;;5066607;28;20051;-82
2024/01/23 11:00:18;;;;;;;27.38;4.95;;;9.10;99.90;;;;;;5052835;28;20028;-82
2024/01/23 11:02:50;;;;;;;18.70;4.28;;;8.80;99.90;;;;;;5071663;28;20252;-84
2024/01/23 11:05:22;;;;;;;21.98;4.50;;;8.60;99.90;;;;;;5072158;28;20036;-81
2024/01/23 11:08:27;;;;;;;23.50;3.88;;;8.40;99.90;;;;;;5080669;28;20032;-83
2024/01/23 11:11:36;;;;;;;26.05;3.78;;;8.40;99.90;;;;;;5073188;28;20024;-82
2024/01/23 11:14:15;;;;;;;21.95;3.72;;;8.40;99.90;;;;;;5071490;28;20507;-83
2024/01/23 11:16:41;;;;;;;26.83;5.97;;;8.30;99.90;;;;;;5068807;28;20024;-83
2024/01/23 11:19:07;;;;;;;25.90;4.90;;;8.30;99.90;;;;;;5070131;28;20020;-82
2024/01/23 11:21:34;;;;;;;20.20;4.13;;;8.20;99.90;;;;;;5070534;28;20024;-80
2024/01/23 11:24:02;;;;;;;21.60;3.85;;;8.20;99.90;;;;;;5073924;28;20044;-82
2024/01/23 11:26:30;;;;;;;26.35;4.40;;;8.10;99.90;;;;;;5058556;28;20036;-82
2024/01/23 11:29:08;;;;;;;22.67;5.07;;;8.10;99.90;;;;;;5082311;28;20033;-84
2024/01/23 11:31:39;;;;;;;23.90;4.35;;;8.10;99.90;;;;;;5047904;28;20044;-82
2024/01/23 11:34:23;;;;;;;22.70;4.03;;;8.00;99.90;;;;;;5092965;28;20039;-85
2024/01/23 11:36:50;;;;;;;31.00;5.25;;;8.00;99.90;;;;;;5079521;28;20487;-82
2024/01/23 11:39:19;;;;;;;28.20;4.15;;;8.10;99.90;;;;;;5079535;28;20035;-89
2024/01/23 11:41:50;;;;;;;22.40;3.92;;;8.00;99.90;;;;;;5056811;28;20048;-83
2024/01/23 11:44:18;;;;;;;25.50;4.05;;;8.10;99.90;;;;;;5057533;28;20478;-83
2024/01/23 11:46:49;;;;;;;29.90;4.20;;;8.20;99.90;;;;;;5104781;27;20033;-82
2024/01/23 11:49:18;;;;;;;19.33;3.42;;;8.30;99.90;;;;;;5066647;28;20039;-84
2024/01/23 11:51:45;;;;;;;22.50;4.22;;;8.40;99.90;;;;;;5050192;28;20050;-82
2024/01/23 11:54:13;;;;;;;25.40;3.80;;;8.50;99.90;;;;;;5082230;28;20059;-83
2024/01/23 11:56:40;;;;;;;23.30;3.70;;;8.50;99.90;;;;;;5070120;28;20498;-85
2024/01/23 11:59:07;;;;;;;23.63;5.15;;;8.40;99.90;;;;;;5067438;28;20035;-85
2024/01/23 12:01:35;;;;;;;19.88;3.28;;;8.40;99.90;;;;;;5083401;28;20039;-84
2024/01/23 12:04:02;;;;;;;35.40;5.45;;;8.40;99.90;;;;;;5075510;28;20025;-83
2024/01/23 12:06:29;;;;;;;23.13;4.07;;;8.40;99.90;;;;;;5082942;28;20027;-82
2024/01/23 12:08:55;;;;;;;17.50;4.28;;;8.40;99.90;;;;;;5037268;28;20060;-91
2024/01/23 12:11:22;;;;;;;20.95;4.15;;;8.50;99.90;;;;;;5065291;28;20036;-86
2024/01/23 12:13:49;;;;;;;19.38;4.28;;;8.60;99.90;;;;;;5064494;28;20036;-88
2024/01/23 12:16:17;;;;;;;22.83;3.70;;;8.60;99.90;;;;;;5073800;28;20039;-84
2024/01/23 12:18:53;;;;;;;27.80;4.15;;;8.70;99.90;;;;;;5067921;28;20040;-82
2024/01/23 12:21:20;;;;;;;27.40;4.40;;;8.70;99.90;;;;;;5056151;28;20427;-84
2024/01/23 12:23:46;;;;;;;19.95;4.10;;;8.70;99.90;;;;;;5073802;28;20554;-83
2024/01/23 12:26:12;;;;;;;21.48;2.83;;;8.70;99.90;;;;;;5076058;28;20032;-82
2024/01/23 12:28:39;;;;;;;19.92;3.50;;;8.80;99.90;;;;;;5063652;28;20488;-82
2024/01/23 12:31:14;;;;;;;21.80;3.53;;;8.80;99.90;;;;;;5073962;28;20031;-86
2024/01/23 12:33:41;;;;;;;19.67;3.65;;;8.90;99.90;;;;;;5079079;28;20035;-85
2024/01/23 12:36:07;;;;;;;25.15;4.28;;;8.90;99.90;;;;;;5054041;28;20028;-83
2024/01/23 12:38:35;;;;;;;19.80;4.00;;;8.90;99.90;;;;;;5074450;28;20032;-82
2024/01/23 12:41:01;;;;;;;19.65;3.65;;;8.90;99.90;;;;;;5053077;28;20032;-84
2024/01/23 12:43:28;;;;;;;19.98;3.53;;;9.00;99.90;;;;;;5063915;28;20036;-82
2024/01/23 12:45:55;;;;;;;28.13;5.18;;;9.00;99.90;;;;;;5078192;28;20352;-83
2024/01/23 12:48:22;;;;;;;18.55;3.00;;;9.00;99.90;;;;;;5072775;28;20398;-87